Time;durP1;ratioP1;P1;durP2;ratioP2;P2;SDS_P1;SDS_P2;PMS_P1;PMS_P2;Temp;Humidity;BMP_temperature;BMP_pressure;BME280_temperature;BME280_humidity;BME280_pressure;Samples;Min_cycle;Max_cycle;Signal;HPM_P1;HPM_P2
2021/10/28 00:14:26;;;;;;;;;;;13.30;99.90;;;;;;6128439;23;20315;-76
2021/10/28 00:16:54;;;;;;;;;;;13.30;99.90;;;;;;6128022;23;19909;-76
2021/10/28 00:19:20;;;;;;;;;;;13.30;99.90;;;;;;6101475;23;19908;-77
2021/10/28 00:21:46;;;;;;;;;;;13.20;99.90;;;;;;6127938;23;19909;-77
2021/10/28 00:24:13;;;;;;;;;;;13.20;99.90;;;;;;6128250;23;19915;-76
2021/10/28 00:26:40;;;;;;;;;;;13.20;99.90;;;;;;6128131;23;20413;-76
2021/10/28 00:29:07;;;;;;;;;;;13.10;99.90;;;;;;6128163;23;19905;-76
2021/10/28 00:31:34;;;;;;;;;;;13.10;99.90;;;;;;6101960;23;19936;-76
2021/10/28 00:34:00;;;;;;;;;;;13.10;99.90;;;;;;6128111;23;20291;-76
2021/10/28 00:36:26;;;;;;;;;;;13.10;99.90;;;;;;6100149;23;20048;-77
2021/10/28 00:38:52;;;;;;;;;;;13.00;99.90;;;;;;6126287;23;19905;-76
2021/10/28 00:41:22;;;;;;;;;;;13.10;99.90;;;;;;6101805;23;19928;-76
2021/10/28 00:43:49;;;;;;;;;;;13.10;99.90;;;;;;6127590;23;19905;-77
2021/10/28 00:46:16;;;;;;;;;;;13.10;99.90;;;;;;6127512;23;19909;-76
2021/10/28 00:48:44;;;;;;;;;;;13.20;99.90;;;;;;6127894;23;19912;-76
2021/10/28 00:51:10;;;;;;;;;;;13.20;99.90;;;;;;6128088;23;19905;-76
2021/10/28 00:53:35;;;;;;;;;;;13.20;99.90;;;;;;6127599;23;19916;-76
2021/10/28 00:56:02;;;;;;;;;;;13.30;99.90;;;;;;6127530;23;19905;-76
2021/10/28 00:58:30;;;;;;;;;;;13.30;99.90;;;;;;6127652;23;20322;-76
2021/10/28 01:00:56;;;;;;;;;;;13.30;99.90;;;;;;6128045;23;19909;-77
2021/10/28 01:03:22;;;;;;;;;;;13.30;99.90;;;;;;6128086;23;19909;-76
2021/10/28 01:05:48;;;;;;;;;;;13.20;99.90;;;;;;6129091;23;19992;-76
2021/10/28 01:08:17;;;;;;;;;;;13.20;99.90;;;;;;6128851;23;20346;-76
2021/10/28 01:10:44;;;;;;;;;;;13.20;99.90;;;;;;6127205;23;19909;-76
2021/10/28 01:13:10;;;;;;;;;;;13.30;99.90;;;;;;6127857;23;20448;-76
2021/10/28 01:15:36;;;;;;;;;;;13.20;99.90;;;;;;6128072;23;19905;-76
2021/10/28 01:18:06;;;;;;;;;;;13.30;99.90;;;;;;6126960;23;19909;-76
2021/10/28 01:20:32;;;;;;;;;;;13.30;99.90;;;;;;6127474;23;20400;-76
2021/10/28 01:22:57;;;;;;;;;;;13.30;99.90;;;;;;6127670;23;19905;-77
2021/10/28 01:25:23;;;;;;;;;;;13.30;99.90;;;;;;6127226;23;20299;-77
2021/10/28 01:27:49;;;;;;;;;;;13.30;99.90;;;;;;6127154;23;19932;-77
2021/10/28 01:30:15;;;;;;;;;;;13.30;99.90;;;;;;6128006;23;19955;-77
2021/10/28 01:32:40;;;;;;;;;;;13.20;99.90;;;;;;6127569;23;19909;-77
2021/10/28 01:35:06;;;;;;;;;;;13.20;99.90;;;;;;6128043;23;19905;-76
2021/10/28 01:37:31;;;;;;;;;;;13.10;99.90;;;;;;6101740;23;19951;-77
2021/10/28 01:39:57;;;;;;;;;;;13.20;99.90;;;;;;6127798;23;19905;-77
2021/10/28 01:42:23;;;;;;;;;;;13.20;99.90;;;;;;6127509;23;19980;-76
2021/10/28 01:44:48;;;;;;;;;;;13.10;99.90;;;;;;6126562;23;19943;-76
2021/10/28 01:47:18;;;;;;;;;;;13.10;99.90;;;;;;6098336;23;20317;-77
2021/10/28 01:49:43;;;;;;;;;;;13.20;99.90;;;;;;6124753;23;19905;-77
2021/10/28 01:52:13;;;;;;;;;;;13.20;99.90;;;;;;6099665;23;19905;-76
2021/10/28 01:54:39;;;;;;;;;;;13.10;99.90;;;;;;6126967;23;19905;-76
2021/10/28 01:57:14;;;;;;;;;;;13.10;99.90;;;;;;6129433;23;19905;-76
2021/10/28 01:59:40;;;;;;;;;;;13.10;99.90;;;;;;6143117;23;19905;-76
2021/10/28 02:02:05;;;;;;;;;;;13.10;99.90;;;;;;6142584;23;19905;-76
2021/10/28 02:04:31;;;;;;;;;;;13.10;99.90;;;;;;6136474;23;19909;-76
2021/10/28 02:06:57;;;;;;;;;;;13.10;99.90;;;;;;6127375;23;19909;-76
2021/10/28 02:09:22;;;;;;;;;;;13.10;99.90;;;;;;6126271;23;19953;-76
2021/10/28 02:11:48;;;;;;;;;;;13.10;99.90;;;;;;6127079;23;19905;-77
2021/10/28 02:14:14;;;;;;;;;;;13.00;99.90;;;;;;6126479;23;19916;-76
2021/10/28 02:16:39;;;;;;;;;;;13.10;99.90;;;;;;6126495;23;19912;-76
2021/10/28 02:19:05;;;;;;;;;;;13.10;99.90;;;;;;6127120;23;19980;-76
2021/10/28 02:21:30;;;;;;;;;;;13.20;99.90;;;;;;6127312;23;19912;-77
2021/10/28 02:23:56;;;;;;;;;;;13.20;99.90;;;;;;6127276;23;19905;-76
2021/10/28 02:26:22;;;;;;;;;;;13.20;99.90;;;;;;6101544;23;19913;-77
2021/10/28 02:28:48;;;;;;;;;;;13.20;99.90;;;;;;6127795;23;19909;-77
2021/10/28 02:31:14;;;;;;;;;;;13.20;99.90;;;;;;6130620;23;19924;-76
2021/10/28 02:33:40;;;;;;;;;;;13.20;99.90;;;;;;6136700;23;19909;-76
2021/10/28 02:36:05;;;;;;;;;;;13.20;99.90;;;;;;6138688;23;19932;-76
2021/10/28 02:38:31;;;;;;;;;;;13.20;99.90;;;;;;6139411;23;19909;-77
2021/10/28 02:40:57;;;;;;;;;;;13.20;99.90;;;;;;6139121;23;19916;-76
2021/10/28 02:43:23;;;;;;;;;;;13.20;99.90;;;;;;6138652;23;19904;-76
2021/10/28 02:45:50;;;;;;;;;;;13.10;99.90;;;;;;6137529;23;19940;-77
2021/10/28 02:48:15;;;;;;;;;;;13.00;99.90;;;;;;6142376;23;19905;-77
2021/10/28 02:50:41;;;;;;;;;;;13.00;99.90;;;;;;6143355;23;19909;-76
2021/10/28 02:53:07;;;;;;;;;;;13.10;99.90;;;;;;6117689;23;19908;-76
2021/10/28 02:55:33;;;;;;;;;;;13.10;99.90;;;;;;6133248;23;19933;-77
2021/10/28 02:57:58;;;;;;;;;;;13.10;99.90;;;;;;6123808;23;19912;-77
2021/10/28 03:00:24;;;;;;;;;;;13.10;99.90;;;;;;6127201;23;19916;-76
2021/10/28 03:02:49;;;;;;;;;;;13.10;99.90;;;;;;6127909;23;19980;-77
2021/10/28 03:05:15;;;;;;;;;;;13.00;99.90;;;;;;6125939;23;20330;-77
2021/10/28 03:07:41;;;;;;;;;;;13.00;99.90;;;;;;6124682;23;20265;-76
2021/10/28 03:10:08;;;;;;;;;;;13.10;99.90;;;;;;6125782;23;20322;-77
2021/10/28 03:12:36;;;;;;;;;;;13.10;99.90;;;;;;6124338;23;19960;-76
2021/10/28 03:15:04;;;;;;;;;;;13.10;99.90;;;;;;6126064;23;20329;-76
2021/10/28 03:17:42;;;;;;;;;;;13.20;99.90;;;;;;6100257;23;19953;-76
2021/10/28 03:25:34;;;;;;;;;;;13.20;99.90;;;;;;6127247;23;20242;-77
2021/10/28 03:25:42;;;;;;;;;;;13.20;99.90;;;;;;6127493;23;19960;-76
2021/10/28 03:28:16;;;;;;;;;;;13.20;99.90;;;;;;6126732;23;19905;-77
2021/10/28 03:30:42;;;;;;;;;;;13.10;99.90;;;;;;6129353;23;19909;-77
2021/10/28 03:33:10;;;;;;;;;;;13.10;99.90;;;;;;6127154;23;19916;-77
2021/10/28 03:35:36;;;;;;;;;;;13.10;99.90;;;;;;6126981;23;19972;-78
2021/10/28 03:38:13;;;;;;;;;;;13.00;99.90;;;;;;6125611;23;19909;-77
2021/10/28 04:00:06;;;;;;;;;;;12.80;99.90;;;;;;6137767;23;20264;-77
2021/10/28 04:21:26;;;;;;;;;;;12.50;99.90;;;;;;6146430;23;19909;-77
2021/10/28 04:29:22;;;;;;;;;;;12.40;99.90;;;;;;6127791;23;19912;-76
2021/10/28 04:31:48;;;;;;;;;;;12.40;99.90;;;;;;6127583;23;20278;-76
2021/10/28 04:34:13;;;;;;;;;;;12.30;99.90;;;;;;6126898;23;19909;-78
2021/10/28 04:36:39;;;;;;;;;;;12.30;99.90;;;;;;6128250;23;19936;-78
2021/10/28 04:39:06;;;;;;;;;;;12.40;99.90;;;;;;6128236;23;19909;-76
2021/10/28 04:41:32;;;;;;;;;;;12.40;99.90;;;;;;6128241;23;19932;-77
2021/10/28 04:43:58;;;;;;;;;;;12.40;99.90;;;;;;6128703;23;19905;-77
2021/10/28 04:46:23;;;;;;;;;;;12.50;99.90;;;;;;6126610;23;19956;-77
2021/10/28 04:48:49;;;;;;;;;;;12.40;99.90;;;;;;6127700;23;19909;-77
2021/10/28 04:51:15;;;;;;;;;;;12.40;99.90;;;;;;6126196;23;19905;-77
2021/10/28 04:53:41;;;;;;;;;;;12.50;99.90;;;;;;6127665;23;19909;-76
2021/10/28 04:56:06;;;;;;;;;;;12.50;99.90;;;;;;6127722;23;20377;-76
2021/10/28 04:58:32;;;;;;;;;;;12.50;99.90;;;;;;6127853;23;19905;-77
2021/10/28 05:00:58;;;;;;;;;;;12.50;99.90;;;;;;6127604;23;19904;-77
2021/10/28 05:03:23;;;;;;;;;;;12.60;99.90;;;;;;6127576;23;19955;-77
2021/10/28 05:05:49;;;;;;;;;;;12.50;99.90;;;;;;6100993;23;19912;-76
2021/10/28 05:08:15;;;;;;;;;;;12.60;99.90;;;;;;6127017;23;20289;-77
2021/10/28 05:10:41;;;;;;;;;;;12.60;99.90;;;;;;6127500;23;19909;-77
2021/10/28 05:13:11;;;;;;;;;;;12.50;99.90;;;;;;6125760;23;19915;-77
2021/10/28 05:15:40;;;;;;;;;;;12.50;99.90;;;;;;6100243;23;19956;-77
2021/10/28 05:18:06;;;;;;;;;;;12.60;99.90;;;;;;6101191;23;19913;-76
2021/10/28 05:20:32;;;;;;;;;;;12.60;99.90;;;;;;6101707;23;19912;-77
2021/10/28 05:22:58;;;;;;;;;;;12.60;99.90;;;;;;6127175;23;19909;-76
2021/10/28 05:25:24;;;;;;;;;;;12.50;99.90;;;;;;6127346;23;19905;-77
2021/10/28 05:27:49;;;;;;;;;;;12.60;99.90;;;;;;6126997;23;19905;-78
2021/10/28 05:30:15;;;;;;;;;;;12.60;99.90;;;;;;6127104;23;19964;-77
2021/10/28 05:32:40;;;;;;;;;;;12.60;99.90;;;;;;6125424;23;20347;-78
2021/10/28 05:35:06;;;;;;;;;;;12.60;99.90;;;;;;6126608;23;19905;-77
2021/10/28 05:37:32;;;;;;;;;;;12.60;99.90;;;;;;6126679;23;19979;-77
2021/10/28 05:40:00;;;;;;;;;;;12.60;99.90;;;;;;6127180;23;19932;-76
2021/10/28 05:42:26;;;;;;;;;;;12.70;99.90;;;;;;6127065;23;20330;-77
2021/10/28 05:44:52;;;;;;;;;;;12.70;99.90;;;;;;6127746;23;19905;-76
2021/10/28 05:47:18;;;;;;;;;;;12.70;99.90;;;;;;6126606;23;19912;-77
2021/10/28 05:49:43;;;;;;;;;;;12.70;99.90;;;;;;6127198;23;20613;-77
2021/10/28 05:52:09;;;;;;;;;;;12.70;99.90;;;;;;6127264;23;19905;-77
2021/10/28 05:54:35;;;;;;;;;;;12.70;99.90;;;;;;6126814;23;19909;-76
2021/10/28 05:57:00;;;;;;;;;;;12.70;99.90;;;;;;6125451;23;19909;-77
2021/10/28 05:59:26;;;;;;;;;;;12.70;99.90;;;;;;6125319;23;19979;-77
2021/10/28 06:01:51;;;;;;;;;;;12.70;99.90;;;;;;6127340;23;20031;-77
2021/10/28 06:04:17;;;;;;;;;;;12.70;99.90;;;;;;6127725;23;19936;-76
2021/10/28 06:06:43;;;;;;;;;;;12.70;99.90;;;;;;6128463;23;19960;-77
2021/10/28 06:09:09;;;;;;;;;;;12.80;99.90;;;;;;6127529;23;19983;-77
2021/10/28 06:11:35;;;;;;;;;;;12.80;99.90;;;;;;6127859;23;19912;-77
2021/10/28 06:14:00;;;;;;;;;;;12.80;99.90;;;;;;6128391;23;20291;-77
2021/10/28 06:16:27;;;;;;;;;;;12.90;99.90;;;;;;6102388;23;19912;-77
2021/10/28 06:18:53;;;;;;;;;;;12.80;99.90;;;;;;6129420;23;19928;-77
2021/10/28 06:21:23;;;;;;;;;;;12.80;99.90;;;;;;6103264;23;19928;-77
2021/10/28 06:23:49;;;;;;;;;;;12.90;99.90;;;;;;6128511;23;19963;-76
2021/10/28 06:26:17;;;;;;;;;;;12.90;99.90;;;;;;6126969;23;19905;-76
2021/10/28 06:28:43;;;;;;;;;;;13.00;99.90;;;;;;6136856;23;19904;-77
2021/10/28 06:31:09;;;;;;;;;;;13.10;99.90;;;;;;6116928;23;19905;-77
2021/10/28 06:33:36;;;;;;;;;;;13.20;99.90;;;;;;6131112;23;19936;-77
2021/10/28 06:36:04;;;;;;;;;;;13.20;99.90;;;;;;6126873;23;19913;-76
2021/10/28 06:38:32;;;;;;;;;;;13.30;99.90;;;;;;6124018;23;20279;-76
2021/10/28 06:40:58;;;;;;;;;;;13.50;99.90;;;;;;6125823;23;19976;-75
2021/10/28 06:43:24;;;;;;;;;;;13.60;99.90;;;;;;6125215;23;19912;-75
2021/10/28 06:45:50;;;;;;;;;;;13.70;99.90;;;;;;6126161;23;19909;-75
2021/10/28 06:48:15;;;;;;;;;;;14.00;99.90;;;;;;6124496;23;19915;-75
2021/10/28 06:50:50;;;;;;;;;;;14.00;99.90;;;;;;6125896;23;19909;-76
2021/10/28 06:56:03;;;;;;;;;;;14.00;99.90;;;;;;6127105;23;19916;-77
2021/10/28 07:03:56;;;;;;;;;;;14.00;99.90;;;;;;6128427;23;19956;-75
2021/10/28 07:06:25;;;;;;;;;;;14.20;99.90;;;;;;6102015;23;20352;-76
2021/10/28 07:09:06;;;;;;;;;;;14.20;99.90;;;;;;6127196;23;19951;-74
2021/10/28 07:11:35;;;;;;;;;;;14.20;99.90;;;;;;6125530;23;19916;-76
2021/10/28 07:14:05;;;;;;;;;;;14.20;99.90;;;;;;6127405;23;19971;-75
2021/10/28 07:19:46;;;;;;;;;;;14.10;99.90;;;;;;6131912;23;19905;-77
2021/10/28 07:22:10;;;;;;;;;;;14.30;99.90;;;;;;6123894;23;19905;-79
2021/10/28 07:30:20;;;;;;;;;;;14.30;99.90;;;;;;6100785;23;19928;-78
2021/10/28 07:55:10;;;;;;;;;;;14.90;99.90;;;;;;6138084;23;19931;-78
2021/10/28 08:21:32;;;;;;;;;;;15.40;99.90;;;;;;6134218;23;19921;-78
2021/10/28 08:29:24;;;;;;;;;;;15.60;99.90;;;;;;6140354;23;19916;-77
2021/10/28 08:31:54;;;;;;;;;;;15.60;99.90;;;;;;6113084;23;19905;-77
2021/10/28 08:34:27;;;;;;;;;;;15.60;99.90;;;;;;6140712;23;19908;-77
2021/10/28 08:37:05;;;;;;;;;;;15.70;99.90;;;;;;6113531;23;19917;-78
2021/10/28 08:39:39;;;;;;;;;;;15.80;99.90;;;;;;6141475;23;19912;-78
2021/10/28 08:42:06;;;;;;;;;;;15.80;99.90;;;;;;6117620;23;19905;-78
2021/10/28 08:44:34;;;;;;;;;;;15.90;99.90;;;;;;6142703;23;20249;-77
2021/10/28 08:47:00;;;;;;;;;;;15.90;99.90;;;;;;6115382;23;19969;-75
2021/10/28 08:49:32;;;;;;;;;;;16.00;99.90;;;;;;6141254;23;19928;-78
2021/10/28 08:52:13;;;;;;;;;;;16.10;99.90;;;;;;6115231;23;19905;-77
2021/10/28 09:19:40;;;;;;;;;;;16.80;99.90;;;;;;6138008;23;19916;-76
2021/10/28 09:25:07;;;;;;;;;;;16.80;99.90;;;;;;6135627;23;19976;-77
2021/10/28 09:28:26;;;;;;;;;;;17.00;99.90;;;;;;6137969;23;19928;-77
2021/10/28 09:31:00;;;;;;;;;;;17.00;99.90;;;;;;6127779;23;19936;-77
2021/10/28 09:45:38;;;;;;;;;;;17.30;99.90;;;;;;6137078;23;19964;-78
2021/10/28 09:47:41;;;;;;;;;;;17.40;99.90;;;;;;6115366;23;19946;-78
2021/10/28 09:50:25;;;;;;;;;;;17.40;99.90;;;;;;6137115;23;19905;-77
2021/10/28 09:58:30;;;;;;;;;;;17.50;99.90;;;;;;6143103;23;19905;-78
2021/10/28 10:00:57;;;;;;;;;;;17.50;99.90;;;;;;6106121;23;19913;-77
2021/10/28 10:05:55;;;;;;;;;;;17.50;99.90;;;;;;6136074;23;19932;-77
2021/10/28 10:08:22;;;;;;;;;;;17.60;99.90;;;;;;6105388;23;20185;-77
2021/10/28 10:10:48;;;;;;;;;;;17.70;99.90;;;;;;6129568;23;19992;-77
2021/10/28 10:13:14;;;;;;;;;;;17.70;99.90;;;;;;6131031;23;19909;-78
2021/10/28 10:15:40;;;;;;;;;;;17.70;99.90;;;;;;6105063;23;20215;-77
2021/10/28 10:18:07;;;;;;;;;;;17.80;99.90;;;;;;6132162;23;19905;-77
2021/10/28 10:29:44;;;;;;;;;;;17.90;99.90;;;;;;6143776;23;20166;-76
2021/10/28 11:27:13;;;;;;;;;;;18.70;99.90;;;;;;6125732;23;19936;-77
2021/10/28 12:24:18;;;;;;;;;;;16.60;99.90;;;;;;6136622;23;19932;-75
2021/10/28 12:43:38;;;;;;;;;;;16.40;99.90;;;;;;6129249;23;19916;-75
2021/10/28 12:46:12;;;;;;;;;;;16.30;99.90;;;;;;6126218;23;19905;-75
2021/10/28 12:54:07;;;;;;;;;;;16.20;99.90;;;;;;6128557;23;19929;-75
2021/10/28 13:48:31;;;;;;;;;;;16.50;99.90;;;;;;6128658;23;19927;-76
2021/10/28 13:58:52;;;;;;;;;;;16.50;99.90;;;;;;6131631;23;19912;-77
2021/10/28 14:23:10;;;;;;;;;;;16.20;99.90;;;;;;6143395;23;19909;-77
2021/10/28 14:29:20;;;;;;;;;;;16.30;99.90;;;;;;6135969;23;19905;-78
2021/10/28 15:32:13;;;;;;;;;;;15.70;99.90;;;;;;6074791;23;20134;-78
2021/10/28 15:34:38;;;;;;;;;;;15.60;99.90;;;;;;6130196;23;19995;-77
2021/10/28 15:42:45;;;;;;;;;;;15.50;99.90;;;;;;6133435;23;19929;-78
2021/10/28 15:56:18;;;;;;;;;;;15.40;99.90;;;;;;6133266;23;19905;-80
2021/10/28 15:59:14;;;;;;;;;;;15.30;99.90;;;;;;6132749;23;19944;-78
2021/10/28 16:23:16;;;;;;;;;;;14.80;99.90;;;;;;6130347;23;20368;-75
2021/10/28 16:25:42;;;;;;;;;;;14.60;99.90;;;;;;6129964;23;20265;-76
2021/10/28 16:28:08;;;;;;;;;;;14.60;99.90;;;;;;6128952;23;19905;-75
2021/10/28 16:30:34;;;;;;;;;;;14.50;99.90;;;;;;6129624;23;19912;-76
2021/10/28 16:33:00;;;;;;;;;;;14.50;99.90;;;;;;6127801;23;19909;-74
2021/10/28 16:35:25;;;;;;;;;;;14.50;99.90;;;;;;6128535;23;19913;-75
2021/10/28 16:37:52;;;;;;;;;;;14.40;99.90;;;;;;6128265;23;19952;-75
2021/10/28 16:40:17;;;;;;;;;;;14.30;99.90;;;;;;6126786;23;19905;-75
2021/10/28 16:42:43;;;;;;;;;;;14.20;99.90;;;;;;6129616;23;19905;-74
2021/10/28 16:45:09;;;;;;;;;;;14.20;99.90;;;;;;6128298;23;19905;-74
2021/10/28 16:47:35;;;;;;;;;;;14.20;99.90;;;;;;6128351;23;19927;-74
2021/10/28 16:50:01;;;;;;;;;;;14.10;99.90;;;;;;6129017;23;19912;-78
2021/10/28 16:52:27;;;;;;;;;;;14.10;99.90;;;;;;6129648;23;19929;-77
2021/10/28 16:54:52;;;;;;;;;;;14.20;99.90;;;;;;6128906;23;19916;-77
2021/10/28 16:57:18;;;;;;;;;;;14.40;99.90;;;;;;6128725;23;19936;-79
2021/10/28 16:59:44;;;;;;;;;;;14.60;99.90;;;;;;6103271;23;19908;-76
2021/10/28 17:02:09;;;;;;;;;;;14.70;99.90;;;;;;6128565;23;19908;-77
2021/10/28 17:04:35;;;;;;;;;;;14.80;99.90;;;;;;6129187;23;19916;-77
2021/10/28 17:07:01;;;;;;;;;;;14.90;99.90;;;;;;6128490;23;19980;-77
2021/10/28 17:09:26;;;;;;;;;;;14.90;99.90;;;;;;6128655;23;19927;-77
2021/10/28 17:11:52;;;;;;;;;;;15.00;99.90;;;;;;6128861;23;19909;-77
2021/10/28 17:14:17;;;;;;;;;;;15.00;99.90;;;;;;6127683;23;19984;-77
2021/10/28 17:16:47;;;;;;;;;;;15.00;99.90;;;;;;6128031;23;19912;-76
2021/10/28 17:19:16;;;;;;;;;;;14.90;99.90;;;;;;6127802;23;19912;-77
2021/10/28 17:21:44;;;;;;;;;;;14.80;99.90;;;;;;6102550;23;20352;-77
2021/10/28 17:24:21;;;;;;;;;;;14.80;99.90;;;;;;6125520;23;20252;-77
2021/10/28 17:26:46;;;;;;;;;;;14.80;99.90;;;;;;6127140;23;20016;-78
2021/10/28 17:29:12;;;;;;;;;;;14.80;99.90;;;;;;6128868;23;20333;-77
2021/10/28 17:31:38;;;;;;;;;;;14.80;99.90;;;;;;6131129;23;19905;-77
2021/10/28 17:34:04;;;;;;;;;;;14.80;99.90;;;;;;6135709;23;19909;-77
2021/10/28 17:36:30;;;;;;;;;;;14.80;99.90;;;;;;6137774;23;20012;-77
2021/10/28 17:38:56;;;;;;;;;;;14.80;99.90;;;;;;6103569;23;19905;-77
2021/10/28 17:41:22;;;;;;;;;;;14.70;99.90;;;;;;6129342;23;20395;-77
2021/10/28 17:43:52;;;;;;;;;;;14.80;99.90;;;;;;6132600;23;19905;-76
2021/10/28 17:46:18;;;;;;;;;;;14.70;99.90;;;;;;6139769;23;20004;-77
2021/10/28 17:48:44;;;;;;;;;;;14.80;99.90;;;;;;6141213;23;19912;-77
2021/10/28 17:51:10;;;;;;;;;;;14.70;99.90;;;;;;6115626;23;19905;-76
2021/10/28 17:53:36;;;;;;;;;;;14.70;99.90;;;;;;6113022;23;20214;-76
2021/10/28 17:56:02;;;;;;;;;;;14.70;99.90;;;;;;6142021;23;19905;-76
2021/10/28 17:58:27;;;;;;;;;;;14.70;99.90;;;;;;6143449;23;19912;-76
2021/10/28 18:00:53;;;;;;;;;;;14.70;99.90;;;;;;6144405;23;19909;-76
2021/10/28 18:03:20;;;;;;;;;;;14.70;99.90;;;;;;6144486;23;19956;-77
2021/10/28 18:05:46;;;;;;;;;;;14.70;99.90;;;;;;6135949;23;20246;-77
2021/10/28 18:08:15;;;;;;;;;;;14.70;99.90;;;;;;6128206;23;19908;-77
2021/10/28 18:10:41;;;;;;;;;;;14.70;99.90;;;;;;6129018;23;19928;-77
2021/10/28 18:13:08;;;;;;;;;;;14.70;99.90;;;;;;6128475;23;20350;-77
2021/10/28 18:15:33;;;;;;;;;;;14.70;99.90;;;;;;6128056;23;19905;-78
2021/10/28 18:18:00;;;;;;;;;;;14.70;99.90;;;;;;6127777;23;20286;-77
2021/10/28 18:20:25;;;;;;;;;;;14.60;99.90;;;;;;6127860;23;19905;-77
2021/10/28 18:22:51;;;;;;;;;;;14.60;99.90;;;;;;6128215;23;19980;-76
2021/10/28 18:25:18;;;;;;;;;;;14.60;99.90;;;;;;6127710;23;19912;-77
2021/10/28 18:27:43;;;;;;;;;;;14.60;99.90;;;;;;6127473;23;19905;-77
2021/10/28 18:30:11;;;;;;;;;;;14.60;99.90;;;;;;6127691;23;19905;-77
2021/10/28 18:32:38;;;;;;;;;;;14.60;99.90;;;;;;6127319;23;19905;-77
2021/10/28 18:35:04;;;;;;;;;;;14.60;99.90;;;;;;6127845;23;20230;-78
2021/10/28 18:37:30;;;;;;;;;;;14.60;99.90;;;;;;6125884;23;19909;-77
2021/10/28 18:39:55;;;;;;;;;;;14.50;99.90;;;;;;6127670;23;19905;-77
2021/10/28 18:42:21;;;;;;;;;;;14.50;99.90;;;;;;6127965;23;19912;-77
2021/10/28 18:44:47;;;;;;;;;;;14.50;99.90;;;;;;6127500;23;19940;-77
2021/10/28 18:47:13;;;;;;;;;;;14.50;99.90;;;;;;6126983;23;20298;-77
2021/10/28 18:49:40;;;;;;;;;;;14.50;99.90;;;;;;6126844;23;20291;-77
2021/10/28 18:52:06;;;;;;;;;;;14.50;99.90;;;;;;6127619;23;19932;-77
2021/10/28 18:54:32;;;;;;;;;;;14.50;99.90;;;;;;6127519;23;19913;-76
2021/10/28 18:56:57;;;;;;;;;;;14.40;99.90;;;;;;6127913;23;19905;-77
2021/10/28 18:59:23;;;;;;;;;;;14.40;99.90;;;;;;6126578;23;19917;-77
2021/10/28 19:01:50;;;;;;;;;;;14.40;99.90;;;;;;6127461;23;19905;-77
2021/10/28 19:04:17;;;;;;;;;;;14.30;99.90;;;;;;6127217;23;19909;-77
2021/10/28 19:06:43;;;;;;;;;;;14.30;99.90;;;;;;6127335;23;19905;-76
2021/10/28 19:09:10;;;;;;;;;;;14.30;99.90;;;;;;6101364;23;19905;-77
2021/10/28 19:11:35;;;;;;;;;;;14.30;99.90;;;;;;6127380;23;19911;-78
2021/10/28 19:14:01;;;;;;;;;;;14.40;99.90;;;;;;6127472;23;19995;-77
2021/10/28 19:16:27;;;;;;;;;;;14.40;99.90;;;;;;6127055;23;19905;-77
2021/10/28 19:18:53;;;;;;;;;;;14.40;99.90;;;;;;6127378;23;19905;-77
2021/10/28 19:21:20;;;;;;;;;;;14.40;99.90;;;;;;6127023;23;20318;-77
2021/10/28 19:23:45;;;;;;;;;;;14.30;99.90;;;;;;6128048;23;19924;-77
2021/10/28 19:26:11;;;;;;;;;;;14.30;99.90;;;;;;6128199;23;19928;-77
2021/10/28 19:28:37;;;;;;;;;;;14.40;99.90;;;;;;6125923;23;19905;-76
2021/10/28 19:31:08;;;;;;;;;;;14.40;99.90;;;;;;6126637;23;19979;-76
2021/10/28 19:33:45;;;;;;;;;;;14.40;99.90;;;;;;6100742;23;20321;-77
2021/10/28 19:36:16;;;;;;;;;;;14.30;99.90;;;;;;6127229;23;19993;-77
2021/10/28 19:46:39;;;;;;;;;;;14.30;99.90;;;;;;6129316;23;19912;-77
2021/10/28 19:49:04;;;;;;;;;;;14.30;99.90;;;;;;6103093;23;19920;-77
2021/10/28 19:51:30;;;;;;;;;;;14.30;99.90;;;;;;6104145;23;19908;-75
2021/10/28 19:53:56;;;;;;;;;;;14.30;99.90;;;;;;6129518;23;20245;-77
2021/10/28 19:56:22;;;;;;;;;;;14.30;99.90;;;;;;6128736;23;19915;-77
2021/10/28 19:58:57;;;;;;;;;;;14.30;99.90;;;;;;6128664;23;19905;-79
2021/10/28 20:01:30;;;;;;;;;;;14.20;99.90;;;;;;6129114;23;19905;-77
2021/10/28 20:22:29;;;;;;;;;;;14.20;99.90;;;;;;6138881;23;19905;-76
2021/10/28 20:24:55;;;;;;;;;;;14.10;99.90;;;;;;6126429;23;19904;-77
2021/10/28 20:27:20;;;;;;;;;;;14.10;99.90;;;;;;6101973;23;19905;-77
2021/10/28 20:29:46;;;;;;;;;;;14.10;99.90;;;;;;6128478;23;19988;-77
2021/10/28 20:32:12;;;;;;;;;;;14.10;99.90;;;;;;6129330;23;20007;-77
2021/10/28 20:37:22;;;;;;;;;;;14.10;99.90;;;;;;6127560;23;19924;-77
2021/10/28 20:39:48;;;;;;;;;;;14.10;99.90;;;;;;6128228;23;19909;-77
2021/10/28 20:42:15;;;;;;;;;;;14.10;99.90;;;;;;6128535;23;19905;-77
2021/10/28 20:44:42;;;;;;;;;;;14.00;99.90;;;;;;6128545;23;19909;-77
2021/10/28 20:47:08;;;;;;;;;;;14.00;99.90;;;;;;6101727;23;19905;-77
2021/10/28 20:49:34;;;;;;;;;;;14.00;99.90;;;;;;6126556;23;19912;-79
2021/10/28 20:51:59;;;;;;;;;;;13.90;99.90;;;;;;6127896;23;20344;-77
2021/10/28 20:54:25;;;;;;;;;;;13.90;99.90;;;;;;6128104;23;19909;-77
2021/10/28 20:56:52;;;;;;;;;;;13.90;99.90;;;;;;6128279;23;19912;-77
2021/10/28 20:59:18;;;;;;;;;;;13.80;99.90;;;;;;6128016;23;20282;-77
2021/10/28 21:01:44;;;;;;;;;;;13.90;99.90;;;;;;6103133;23;19928;-77
2021/10/28 21:04:10;;;;;;;;;;;13.80;99.90;;;;;;6128528;23;19905;-77
2021/10/28 21:06:36;;;;;;;;;;;13.80;99.90;;;;;;6128672;23;20126;-77
2021/10/28 21:09:03;;;;;;;;;;;13.70;99.90;;;;;;6128251;23;19916;-77
2021/10/28 21:11:29;;;;;;;;;;;13.70;99.90;;;;;;6128505;23;19904;-76
2021/10/28 21:13:54;;;;;;;;;;;13.70;99.90;;;;;;6128141;23;20360;-77
2021/10/28 21:16:20;;;;;;;;;;;13.70;99.90;;;;;;6128453;23;20281;-77
2021/10/28 21:18:46;;;;;;;;;;;13.60;99.90;;;;;;6102052;23;19905;-77
2021/10/28 21:21:12;;;;;;;;;;;13.60;99.90;;;;;;6128202;23;19920;-78
2021/10/28 21:23:38;;;;;;;;;;;13.60;99.90;;;;;;6128645;23;19905;-77
2021/10/28 21:26:03;;;;;;;;;;;13.60;99.90;;;;;;6128581;23;20256;-77
2021/10/28 21:28:29;;;;;;;;;;;13.50;99.90;;;;;;6128305;23;19936;-77
2021/10/28 21:30:55;;;;;;;;;;;13.50;99.90;;;;;;6127750;23;19905;-77
2021/10/28 21:33:21;;;;;;;;;;;13.50;99.90;;;;;;6127237;23;19946;-76
2021/10/28 21:35:46;;;;;;;;;;;13.50;99.90;;;;;;6125634;23;19913;-76
2021/10/28 21:38:12;;;;;;;;;;;13.40;99.90;;;;;;6125665;23;20397;-76
2021/10/28 21:40:38;;;;;;;;;;;13.40;99.90;;;;;;6125774;23;19912;-77
2021/10/28 21:43:04;;;;;;;;;;;13.40;99.90;;;;;;6142834;23;19912;-76
2021/10/28 21:45:30;;;;;;;;;;;13.40;99.90;;;;;;6143262;23;19936;-77
2021/10/28 21:47:57;;;;;;;;;;;13.30;99.90;;;;;;6128237;23;19905;-76
2021/10/28 21:50:23;;;;;;;;;;;13.30;99.90;;;;;;6126027;23;19933;-76
2021/10/28 21:52:53;;;;;;;;;;;13.30;99.90;;;;;;6126630;23;19906;-77
2021/10/28 21:58:04;;;;;;;;;;;13.30;99.90;;;;;;6127522;23;20005;-77
2021/10/28 22:24:59;;;;;;;;;;;13.00;99.90;;;;;;6126902;23;20381;-76
2021/10/28 22:27:26;;;;;;;;;;;12.90;99.90;;;;;;6125300;23;19905;-76
2021/10/28 22:29:53;;;;;;;;;;;12.90;99.90;;;;;;6126519;23;19909;-76
2021/10/28 22:32:19;;;;;;;;;;;12.90;99.90;;;;;;6126529;23;19967;-76
2021/10/28 22:34:46;;;;;;;;;;;12.90;99.90;;;;;;6126726;23;19909;-76
2021/10/28 22:37:22;;;;;;;;;;;12.80;99.90;;;;;;6126789;23;19919;-77
2021/10/28 22:42:27;;;;;;;;;;;12.80;99.90;;;;;;6136986;23;19932;-76
2021/10/28 22:45:02;;;;;;;;;;;12.80;99.90;;;;;;6127250;23;19905;-78
2021/10/28 22:47:28;;;;;;;;;;;12.80;99.90;;;;;;6127482;23;19956;-77
2021/10/28 22:49:55;;;;;;;;;;;12.80;99.90;;;;;;6128025;23;19905;-78
2021/10/28 22:54:48;;;;;;;;;;;12.80;99.90;;;;;;6127580;23;19909;-76
2021/10/28 22:57:20;;;;;;;;;;;12.70;99.90;;;;;;6126995;23;20118;-76
2021/10/28 22:59:47;;;;;;;;;;;12.70;99.90;;;;;;6101090;23;19909;-76
2021/10/28 23:02:26;;;;;;;;;;;12.70;99.90;;;;;;6126795;23;20223;-76
2021/10/28 23:05:25;;;;;;;;;;;12.60;99.90;;;;;;6126004;23;19992;-75
2021/10/28 23:20:51;;;;;;;;;;;12.40;99.90;;;;;;6127110;23;19964;-76
2021/10/28 23:23:17;;;;;;;;;;;12.40;99.90;;;;;;6127007;23;19905;-77
2021/10/28 23:25:43;;;;;;;;;;;12.40;99.90;;;;;;6126658;23;19984;-76
2021/10/28 23:28:09;;;;;;;;;;;12.40;99.90;;;;;;6126357;23;19913;-76
2021/10/28 23:30:35;;;;;;;;;;;12.30;99.90;;;;;;6126854;23;19975;-76
2021/10/28 23:33:02;;;;;;;;;;;12.20;99.90;;;;;;6100544;23;19905;-77
2021/10/28 23:35:27;;;;;;;;;;;12.20;99.90;;;;;;6127134;23;19913;-76
2021/10/28 23:37:53;;;;;;;;;;;12.20;99.90;;;;;;6126853;23;19944;-76
2021/10/28 23:40:19;;;;;;;;;;;12.20;99.90;;;;;;6126569;23;19905;-76
2021/10/28 23:42:44;;;;;;;;;;;12.10;99.90;;;;;;6126668;23;19988;-76
2021/10/28 23:45:10;;;;;;;;;;;12.10;99.90;;;;;;6126495;23;19936;-77
2021/10/28 23:47:36;;;;;;;;;;;12.10;99.90;;;;;;6126597;23;20318;-77
2021/10/28 23:50:03;;;;;;;;;;;12.10;99.90;;;;;;6128104;23;19992;-77
2021/10/28 23:52:29;;;;;;;;;;;12.10;99.90;;;;;;6143229;23;20165;-75